createdAt,value
2023-05-05T00:00:15.930Z,100516.50
2023-05-05T00:02:44.245Z,100508.22
2023-05-05T00:05:12.286Z,100515.94
2023-05-05T00:07:40.346Z,100514.63
2023-05-05T00:10:10.628Z,100504.69
2023-05-05T00:12:38.709Z,100513.25
2023-05-05T00:15:07.862Z,100515.38
2023-05-05T00:17:35.942Z,100517.69
2023-05-05T00:20:04.252Z,100517.69
2023-05-05T00:22:32.282Z,100516.16
2023-05-05T00:25:00.272Z,100517.81
2023-05-05T00:27:29.639Z,100507.94
2023-05-05T00:29:57.708Z,100510.25
2023-05-05T00:32:25.957Z,100510.94
2023-05-05T00:34:54.628Z,100509.78
2023-05-05T00:37:22.691Z,100501.88
2023-05-05T00:39:50.845Z,100499.03
2023-05-05T00:42:19.131Z,100486.84
2023-05-05T00:44:48.614Z,100490.47
2023-05-05T00:47:16.921Z,100484.34
2023-05-05T00:49:45.093Z,100480.22
2023-05-05T00:52:13.194Z,100474.09
2023-05-05T00:54:41.386Z,100472.44
2023-05-05T00:57:09.510Z,100473.94
2023-05-05T00:59:39.257Z,100474.78
2023-05-05T01:02:08.825Z,100477.91
2023-05-05T01:04:36.937Z,100472.31
2023-05-05T01:07:13.613Z,100469.19
2023-05-05T01:09:57.923Z,100471.69
2023-05-05T01:12:42.516Z,100458.50
2023-05-05T01:15:17.125Z,100463.97
2023-05-05T01:17:53.610Z,100451.75
2023-05-05T01:20:28.601Z,100461.38
2023-05-05T01:23:00.658Z,100462.53
2023-05-05T01:26:10.276Z,100452.63
2023-05-05T01:29:02.155Z,100449.13
2023-05-05T01:31:53.177Z,100452.78
2023-05-05T01:34:26.451Z,100445.19
2023-05-05T01:37:04.718Z,100436.59
2023-05-05T01:39:36.098Z,100438.56
2023-05-05T01:42:09.433Z,100433.44
2023-05-05T01:44:38.914Z,100441.34
2023-05-05T01:47:10.300Z,100441.03
2023-05-05T01:49:39.383Z,100432.94
2023-05-05T01:52:08.251Z,100427.16
2023-05-05T01:54:37.701Z,100427.47
2023-05-05T01:57:08.501Z,100430.47
2023-05-05T01:59:39.136Z,100433.44
2023-05-05T02:02:11.490Z,100426.03
2023-05-05T02:04:44.648Z,100425.69
2023-05-05T02:07:14.774Z,100430.50
2023-05-05T02:09:45.083Z,100431.94
2023-05-05T02:12:13.985Z,100422.88
2023-05-05T02:14:44.218Z,100427.16
2023-05-05T02:17:18.173Z,100424.69
2023-05-05T02:19:48.931Z,100425.19
2023-05-05T02:22:17.147Z,100427.84
2023-05-05T02:24:45.928Z,100423.53
2023-05-05T02:27:18.932Z,100418.25
2023-05-05T02:29:50.539Z,100425.50
2023-05-05T02:32:24.360Z,100416.91
2023-05-05T02:34:54.285Z,100413.59
2023-05-05T02:37:25.771Z,100411.91
2023-05-05T02:40:02.641Z,100413.88
2023-05-05T02:42:37.524Z,100414.84
2023-05-05T02:45:12.375Z,100416.63
2023-05-05T02:47:44.892Z,100412.00
2023-05-05T02:50:13.437Z,100407.50
2023-05-05T02:52:47.464Z,100406.50
2023-05-05T02:55:16.860Z,100407.97
2023-05-05T02:57:50.934Z,100408.44
2023-05-05T03:00:24.312Z,100408.91
2023-05-05T03:03:05.359Z,100406.72
2023-05-05T03:05:42.735Z,100407.88
2023-05-05T03:08:15.341Z,100416.13
2023-05-05T03:10:48.737Z,100407.69
2023-05-05T03:13:19.719Z,100391.19
2023-05-05T03:15:50.738Z,100392.84
2023-05-05T03:18:25.549Z,100398.81
2023-05-05T03:21:07.943Z,100402.09
2023-05-05T03:23:38.250Z,100405.94
2023-05-05T03:26:11.376Z,100394.06
2023-05-05T03:28:43.193Z,100403.16
2023-05-05T03:31:30.430Z,100411.94
2023-05-05T03:34:02.789Z,100412.94
2023-05-05T03:36:36.967Z,100407.53
2023-05-05T03:39:05.251Z,100402.28
2023-05-05T03:41:34.984Z,100404.75
2023-05-05T03:44:04.190Z,100407.94
2023-05-05T03:46:32.462Z,100409.63
2023-05-05T03:49:01.956Z,100413.91
2023-05-05T03:51:30.006Z,100406.97
2023-05-05T03:53:58.909Z,100411.28
2023-05-05T03:56:26.993Z,100407.00
2023-05-05T03:58:55.093Z,100410.63
2023-05-05T04:01:23.425Z,100418.72
2023-05-05T04:03:52.074Z,100411.97
2023-05-05T04:06:22.372Z,100411.31
2023-05-05T04:08:50.444Z,100398.75
2023-05-05T04:11:18.568Z,100404.50
2023-05-05T04:13:46.726Z,100401.03
2023-05-05T04:16:14.893Z,100418.56
2023-05-05T04:18:42.984Z,100417.56
2023-05-05T04:21:11.086Z,100414.56
2023-05-05T04:23:41.075Z,100418.06
2023-05-05T04:26:09.199Z,100420.56
2023-05-05T04:28:37.259Z,100419.88
2023-05-05T04:31:06.172Z,100427.69
2023-05-05T04:33:37.458Z,100422.53
2023-05-05T04:36:06.197Z,100418.88
2023-05-05T04:38:34.551Z,100413.47
2023-05-05T04:41:07.529Z,100415.94
2023-05-05T04:43:37.896Z,100413.97
2023-05-05T04:46:06.451Z,100412.63
2023-05-05T04:48:37.955Z,100409.31
2023-05-05T04:51:07.155Z,100408.31
2023-05-05T04:53:36.064Z,100421.00
2023-05-05T04:56:04.327Z,100422.13
2023-05-05T04:58:33.791Z,100417.47
2023-05-05T05:01:01.862Z,100413.72
2023-05-05T05:03:32.021Z,100409.47
2023-05-05T05:06:00.434Z,100413.88
2023-05-05T05:08:28.471Z,100413.16
2023-05-05T05:10:56.468Z,100416.53
2023-05-05T05:13:24.658Z,100420.44
2023-05-05T05:15:54.210Z,100424.56
2023-05-05T05:18:22.377Z,100424.09
2023-05-05T05:20:51.611Z,100429.22
2023-05-05T05:23:19.699Z,100423.81
2023-05-05T05:25:48.103Z,100425.75
2023-05-05T05:28:18.842Z,100434.09
2023-05-05T05:30:52.136Z,100432.81
2023-05-05T05:33:22.067Z,100442.25
2023-05-05T05:35:50.780Z,100438.78
2023-05-05T05:38:21.137Z,100442.25
2023-05-05T05:40:51.791Z,100434.72
2023-05-05T05:43:19.864Z,100435.63
2023-05-05T05:45:48.012Z,100443.31
2023-05-05T05:48:17.122Z,100437.50
2023-05-05T05:50:46.785Z,100445.19
2023-05-05T05:53:15.023Z,100436.25
2023-05-05T05:55:43.613Z,100433.66
2023-05-05T05:58:11.737Z,100443.81
2023-05-05T06:00:39.790Z,100443.66
2023-05-05T06:03:10.446Z,100457.50
2023-05-05T06:05:40.036Z,100453.69
2023-05-05T06:08:09.530Z,100452.78
2023-05-05T06:10:42.774Z,100449.09
2023-05-05T06:13:16.251Z,100450.91
2023-05-05T06:15:47.649Z,100436.72
2023-05-05T06:18:16.495Z,100435.34
2023-05-05T06:20:44.909Z,100428.63
2023-05-05T06:23:16.426Z,100439.94
2023-05-05T06:25:49.564Z,100436.25
2023-05-05T06:28:17.725Z,100435.47
2023-05-05T06:30:45.741Z,100443.13
2023-05-05T06:33:13.693Z,100438.19
2023-05-05T06:35:41.752Z,100448.69
2023-05-05T06:38:10.238Z,100463.25
2023-05-05T06:40:39.606Z,100465.91
2023-05-05T06:43:07.759Z,100481.88
2023-05-05T06:45:43.770Z,100480.78
2023-05-05T06:48:12.008Z,100490.53
2023-05-05T06:50:39.957Z,100497.31
2023-05-05T06:53:08.023Z,100499.16
2023-05-05T06:55:36.019Z,100501.78
2023-05-05T06:58:05.475Z,100506.69
2023-05-05T07:00:33.634Z,100506.91
2023-05-05T07:03:01.794Z,100503.28
2023-05-05T07:05:29.806Z,100495.34
2023-05-05T07:07:58.450Z,100493.19
2023-05-05T07:10:27.396Z,100503.69
2023-05-05T07:12:55.921Z,100499.84
2023-05-05T07:15:29.118Z,100501.09
2023-05-05T07:17:58.115Z,100505.03
2023-05-05T07:20:26.872Z,100512.84
2023-05-05T07:22:55.261Z,100504.84
2023-05-05T07:25:23.275Z,100504.81
2023-05-05T07:27:51.568Z,100506.19
2023-05-05T07:30:20.093Z,100506.94
2023-05-05T07:32:51.209Z,100511.44
2023-05-05T07:35:19.524Z,100512.63
2023-05-05T07:37:47.788Z,100511.88
2023-05-05T07:40:15.826Z,100522.97
2023-05-05T07:42:43.918Z,100512.25
2023-05-05T07:45:12.832Z,100518.75
2023-05-05T07:47:41.681Z,100510.81
2023-05-05T07:50:11.806Z,100517.53
2023-05-05T07:55:11.387Z,100527.00
2023-05-05T07:57:39.583Z,100526.72
2023-05-05T08:00:09.435Z,100529.53
2023-05-05T08:02:41.288Z,100538.69
2023-05-05T08:05:11.469Z,100539.44
2023-05-05T08:07:41.455Z,100533.31
2023-05-05T08:10:10.995Z,100535.44
2023-05-05T08:12:39.191Z,100530.72
2023-05-05T08:15:08.255Z,100530.75
2023-05-05T08:17:50.710Z,100542.69
2023-05-05T08:20:21.633Z,100537.91
2023-05-05T08:22:50.735Z,100529.84
2023-05-05T08:25:18.751Z,100527.06
2023-05-05T08:27:46.825Z,100535.50
2023-05-05T08:30:17.269Z,100541.16
2023-05-05T08:32:45.414Z,100540.13
2023-05-05T08:35:13.657Z,100534.78
2023-05-05T08:37:43.296Z,100549.13
2023-05-05T08:40:14.179Z,100538.00
2023-05-05T08:42:42.403Z,100542.00
2023-05-05T08:45:11.616Z,100546.22
2023-05-05T08:47:40.758Z,100544.25
2023-05-05T08:50:12.017Z,100545.06
2023-05-05T08:52:44.347Z,100538.41
2023-05-05T08:55:24.081Z,100538.97
2023-05-05T08:57:53.644Z,100541.66
2023-05-05T09:00:22.929Z,100534.03
2023-05-05T09:02:51.402Z,100541.00
2023-05-05T09:05:19.617Z,100528.78
2023-05-05T09:07:47.719Z,100535.53
2023-05-05T09:10:17.352Z,100540.06
2023-05-05T09:12:45.508Z,100540.72
2023-05-05T09:15:15.534Z,100541.63
2023-05-05T09:17:43.801Z,100541.66
2023-05-05T09:20:13.028Z,100538.78
2023-05-05T09:22:42.647Z,100533.41
2023-05-05T09:25:12.738Z,100543.38
2023-05-05T09:27:43.459Z,100545.16
2023-05-05T09:30:13.157Z,100543.47
2023-05-05T09:32:49.072Z,100544.38
2023-05-05T09:35:17.799Z,100543.88
2023-05-05T09:37:46.478Z,100542.00
2023-05-05T09:40:16.385Z,100544.13
2023-05-05T09:42:46.021Z,100542.06
2023-05-05T09:45:27.975Z,100541.41
2023-05-05T09:47:59.754Z,100548.09
2023-05-05T09:50:30.967Z,100547.63
2023-05-05T09:53:01.092Z,100544.91
2023-05-05T09:55:31.033Z,100551.47
2023-05-05T09:58:19.632Z,100545.63
2023-05-05T10:00:48.172Z,100534.19
2023-05-05T10:03:16.375Z,100534.81
2023-05-05T10:05:52.525Z,100533.44
2023-05-05T10:08:22.053Z,100533.09
2023-05-05T10:10:54.462Z,100524.59
2023-05-05T10:13:26.136Z,100526.28
2023-05-05T10:15:55.968Z,100526.34
2023-05-05T10:18:26.084Z,100522.84
2023-05-05T10:20:58.468Z,100519.81
2023-05-05T10:23:32.028Z,100523.66
2023-05-05T10:26:03.302Z,100526.69
2023-05-05T10:28:35.714Z,100519.78
2023-05-05T10:31:13.170Z,100517.03
2023-05-05T10:33:55.551Z,100524.63
2023-05-05T10:36:25.390Z,100526.16
2023-05-05T10:38:56.314Z,100522.31
2023-05-05T10:41:25.784Z,100518.63
2023-05-05T10:43:57.234Z,100513.53
2023-05-05T10:46:26.688Z,100505.66
2023-05-05T10:49:01.120Z,100506.66
2023-05-05T10:51:40.636Z,100513.41
2023-05-05T10:54:15.055Z,100509.59
2023-05-05T10:56:44.083Z,100513.19
2023-05-05T10:59:47.846Z,100519.16
2023-05-05T11:02:23.642Z,100520.03
2023-05-05T11:05:14.306Z,100512.53
2023-05-05T11:07:43.082Z,100506.81
2023-05-05T11:10:12.668Z,100507.88
2023-05-05T11:13:14.126Z,100505.03
2023-05-05T11:15:43.583Z,100497.84
2023-05-05T11:18:35.915Z,100501.19
2023-05-05T11:21:21.847Z,100496.47
2023-05-05T11:23:51.723Z,100487.88
2023-05-05T11:26:41.075Z,100481.28
2023-05-05T11:29:09.317Z,100481.16
2023-05-05T11:31:38.991Z,100475.69
2023-05-05T11:34:29.677Z,100478.13
2023-05-05T11:37:08.743Z,100475.59
2023-05-05T11:39:48.421Z,100461.63
2023-05-05T11:42:24.728Z,100465.78
2023-05-05T11:44:53.641Z,100463.38
2023-05-05T11:47:35.285Z,100461.03
2023-05-05T11:50:23.424Z,100464.09
2023-05-05T11:52:51.767Z,100457.44
2023-05-05T11:55:26.021Z,100450.47
2023-05-05T11:57:54.037Z,100448.63
2023-05-05T12:00:32.760Z,100451.09
2023-05-05T12:03:02.495Z,100452.44
2023-05-05T12:05:30.985Z,100459.94
2023-05-05T12:07:59.810Z,100456.94
2023-05-05T12:10:28.817Z,100452.84
2023-05-05T12:12:57.222Z,100444.19
2023-05-05T12:15:34.391Z,100448.53
2023-05-05T12:18:05.960Z,100447.09
2023-05-05T12:20:35.149Z,100446.19
2023-05-05T12:23:04.938Z,100443.03
2023-05-05T12:25:38.198Z,100431.94
2023-05-05T12:28:08.082Z,100438.00
2023-05-05T12:30:36.677Z,100436.81
2023-05-05T12:33:07.798Z,100425.38
2023-05-05T12:35:37.110Z,100422.34
2023-05-05T12:38:05.248Z,100426.97
2023-05-05T12:40:47.751Z,100420.41
2023-05-05T12:43:32.781Z,100426.34
2023-05-05T12:46:06.298Z,100422.88
2023-05-05T12:48:38.035Z,100427.84
2023-05-05T12:51:20.905Z,100426.34
2023-05-05T12:53:50.663Z,100422.34
2023-05-05T12:56:36.326Z,100415.19
2023-05-05T12:59:06.532Z,100412.59
2023-05-05T13:01:35.296Z,100409.47
2023-05-05T13:04:13.149Z,100414.06
2023-05-05T13:06:42.634Z,100410.63
2023-05-05T13:09:23.173Z,100414.66
2023-05-05T13:11:51.639Z,100410.88
2023-05-05T13:14:19.857Z,100404.88
2023-05-05T13:16:48.079Z,100399.97
2023-05-05T13:19:17.503Z,100388.56
2023-05-05T13:21:45.455Z,100386.44
2023-05-05T13:24:28.128Z,100387.25
2023-05-05T13:26:59.471Z,100381.56
2023-05-05T13:29:31.398Z,100370.69
2023-05-05T13:32:00.052Z,100370.69
2023-05-05T13:34:29.667Z,100363.59
2023-05-05T13:36:57.816Z,100365.97
2023-05-05T13:39:25.927Z,100367.25
2023-05-05T13:41:54.586Z,100364.41
2023-05-05T13:44:23.061Z,100367.56
2023-05-05T13:46:51.073Z,100361.00
2023-05-05T13:49:20.063Z,100362.78
2023-05-05T13:51:49.514Z,100363.66
2023-05-05T13:54:17.566Z,100367.50
2023-05-05T13:56:45.738Z,100372.91
2023-05-05T13:59:13.919Z,100368.38
2023-05-05T14:01:42.032Z,100368.19
2023-05-05T14:04:10.181Z,100358.88
2023-05-05T14:06:38.194Z,100355.78
2023-05-05T14:09:08.184Z,100353.78
2023-05-05T14:11:36.389Z,100345.31
2023-05-05T14:14:04.525Z,100353.81
2023-05-05T14:16:32.722Z,100356.28
2023-05-05T14:19:00.740Z,100362.34
2023-05-05T14:21:28.829Z,100353.78
2023-05-05T14:23:56.873Z,100352.09
2023-05-05T14:26:27.270Z,100343.22
2023-05-05T14:28:55.297Z,100360.75
2023-05-05T14:31:23.370Z,100356.97
2023-05-05T14:33:51.383Z,100360.84
2023-05-05T14:36:19.452Z,100367.94
2023-05-05T14:38:47.602Z,100383.34
2023-05-05T14:41:15.731Z,100390.59
2023-05-05T14:43:45.258Z,100420.06
2023-05-05T14:46:13.357Z,100435.09
2023-05-05T14:48:41.419Z,100459.03
2023-05-05T14:51:09.457Z,100476.41
2023-05-05T14:53:37.510Z,100495.53
2023-05-05T14:56:06.155Z,100497.75
2023-05-05T14:58:34.207Z,100498.38
2023-05-05T15:01:03.649Z,100496.41
2023-05-05T15:03:32.316Z,100500.44
2023-05-05T15:06:00.611Z,100498.47
2023-05-05T15:08:28.725Z,100496.81
2023-05-05T15:10:56.685Z,100489.22
2023-05-05T15:13:25.031Z,100479.56
2023-05-05T15:15:53.090Z,100470.50
2023-05-05T15:18:22.645Z,100468.03
2023-05-05T15:20:50.928Z,100469.28
2023-05-05T15:23:19.021Z,100469.28
2023-05-05T15:25:47.067Z,100472.75
2023-05-05T15:28:15.161Z,100462.28
2023-05-05T15:30:45.383Z,100464.75
2023-05-05T15:33:13.412Z,100461.03
2023-05-05T15:35:42.812Z,100482.81
2023-05-05T15:38:10.870Z,100480.94
2023-05-05T15:40:38.937Z,100471.44
2023-05-05T15:43:06.933Z,100472.66
2023-05-05T15:45:35.210Z,100483.31
2023-05-05T15:48:03.326Z,100478.81
2023-05-05T15:50:31.368Z,100474.47
2023-05-05T15:53:00.873Z,100478.22
2023-05-05T15:55:29.358Z,100478.84
2023-05-05T15:57:57.354Z,100492.06
2023-05-05T16:00:25.698Z,100496.19
2023-05-05T16:02:53.793Z,100506.91
2023-05-05T16:05:23.199Z,100513.06
2023-05-05T16:07:52.569Z,100524.16
2023-05-05T16:10:22.216Z,100519.44
2023-05-05T16:12:52.166Z,100516.34
2023-05-05T16:15:20.597Z,100513.47
2023-05-05T16:17:48.588Z,100516.94
2023-05-05T16:20:16.960Z,100528.44
2023-05-05T16:22:44.962Z,100540.97
2023-05-05T16:25:12.962Z,100542.00
2023-05-05T16:27:42.371Z,100552.47
2023-05-05T16:30:12.852Z,100557.16
2023-05-05T16:32:40.899Z,100554.25
2023-05-05T16:35:09.538Z,100563.84
2023-05-05T16:37:37.649Z,100563.44
2023-05-05T16:40:07.213Z,100560.53
2023-05-05T16:42:35.394Z,100566.91
2023-05-05T16:45:05.321Z,100570.50
2023-05-05T16:47:33.438Z,100575.50
2023-05-05T16:50:01.501Z,100572.38
2023-05-05T16:52:29.573Z,100563.19
2023-05-05T16:54:57.620Z,100566.44
2023-05-05T16:57:25.630Z,100568.50
2023-05-05T16:59:56.398Z,100563.78
2023-05-05T17:02:26.117Z,100560.63
2023-05-05T17:04:54.181Z,100557.72
2023-05-05T17:07:22.292Z,100561.41
2023-05-05T17:09:51.083Z,100563.00
2023-05-05T17:12:19.183Z,100570.53
2023-05-05T17:14:47.334Z,100573.31
2023-05-05T17:17:15.458Z,100576.72
2023-05-05T17:19:44.965Z,100571.75
2023-05-05T17:22:13.034Z,100567.06
2023-05-05T17:24:41.133Z,100561.34
2023-05-05T17:27:09.231Z,100560.31
2023-05-05T17:29:40.835Z,100566.25
2023-05-05T17:32:09.327Z,100565.16
2023-05-05T17:34:37.533Z,100557.59
2023-05-05T17:37:06.970Z,100563.75
2023-05-05T17:39:34.981Z,100562.38
2023-05-05T17:42:03.053Z,100565.03
2023-05-05T17:44:32.679Z,100560.44
2023-05-05T17:47:02.757Z,100563.28
2023-05-05T17:49:30.969Z,100558.91
2023-05-05T17:51:59.005Z,100560.28
2023-05-05T17:54:28.431Z,100561.47
2023-05-05T17:56:56.487Z,100552.22
2023-05-05T17:59:24.479Z,100555.06
2023-05-05T18:01:52.514Z,100555.00
2023-05-05T18:04:20.522Z,100555.34
2023-05-05T18:06:48.656Z,100563.09
2023-05-05T18:09:17.282Z,100559.00
2023-05-05T18:11:46.630Z,100563.03
2023-05-05T18:14:14.747Z,100557.47
2023-05-05T18:16:47.709Z,100554.53
2023-05-05T18:19:16.520Z,100556.09
2023-05-05T18:21:44.581Z,100555.69
2023-05-05T18:26:50.329Z,100549.44
2023-05-05T18:29:18.543Z,100552.47
2023-05-05T18:31:48.387Z,100556.31
2023-05-05T18:34:17.147Z,100540.75
2023-05-05T18:36:45.329Z,100531.28
2023-05-05T18:39:13.531Z,100531.47
2023-05-05T18:41:41.864Z,100538.84
2023-05-05T18:44:11.664Z,100535.53
2023-05-05T18:46:39.799Z,100536.53
2023-05-05T18:49:08.422Z,100535.06
2023-05-05T18:51:36.632Z,100542.44
2023-05-05T18:54:04.892Z,100541.13
2023-05-05T18:56:33.019Z,100545.19
2023-05-05T18:59:01.096Z,100547.22
2023-05-05T19:01:31.084Z,100548.41
2023-05-05T19:03:59.137Z,100540.81
2023-05-05T19:06:27.360Z,100540.97
2023-05-05T19:08:55.488Z,100541.34
2023-05-05T19:11:23.539Z,100548.69
2023-05-05T19:13:51.605Z,100543.75
2023-05-05T19:16:19.690Z,100541.25
2023-05-05T19:18:49.362Z,100537.97
2023-05-05T19:21:17.432Z,100540.00
2023-05-05T19:23:45.511Z,100534.84
2023-05-05T19:26:13.979Z,100539.50
2023-05-05T19:28:42.050Z,100547.88
2023-05-05T19:31:10.122Z,100544.75
2023-05-05T19:33:38.365Z,100532.03
2023-05-05T19:36:08.251Z,100538.69
2023-05-05T19:38:36.684Z,100544.88
2023-05-05T19:41:04.668Z,100542.13
2023-05-05T19:43:32.700Z,100553.69
2023-05-05T19:46:01.693Z,100551.31
2023-05-05T19:48:29.928Z,100547.06
2023-05-05T19:50:57.956Z,100554.28
2023-05-05T19:53:27.910Z,100558.00
2023-05-05T19:55:56.179Z,100553.75
2023-05-05T19:58:24.934Z,100551.69
2023-05-05T20:00:53.049Z,100553.75
2023-05-05T20:03:21.353Z,100549.53
2023-05-05T20:05:49.656Z,100549.09
2023-05-05T20:08:17.739Z,100545.84
2023-05-05T20:10:47.160Z,100539.94
2023-05-05T20:13:15.216Z,100542.47
2023-05-05T20:15:43.397Z,100546.63
2023-05-05T20:18:11.612Z,100544.47
2023-05-05T20:20:39.659Z,100549.63
2023-05-05T20:23:07.709Z,100558.94
2023-05-05T20:25:35.836Z,100555.81
2023-05-05T20:28:05.412Z,100551.69
2023-05-05T20:30:33.483Z,100544.59
2023-05-05T20:33:01.555Z,100544.44
2023-05-05T20:35:29.581Z,100555.09
2023-05-05T20:37:57.631Z,100550.63
2023-05-05T20:40:26.782Z,100544.53
2023-05-05T20:42:54.873Z,100550.47
2023-05-05T20:45:24.978Z,100546.81
2023-05-05T20:47:53.311Z,100546.66
2023-05-05T20:50:21.529Z,100554.75
2023-05-05T20:52:49.826Z,100561.00
2023-05-05T20:55:17.987Z,100557.19
2023-05-05T20:57:46.006Z,100560.28
2023-05-05T21:00:14.381Z,100563.25
2023-05-05T21:02:44.175Z,100561.25
2023-05-05T21:05:12.636Z,100561.91
2023-05-05T21:07:40.869Z,100566.50
2023-05-05T21:10:10.178Z,100561.34
2023-05-05T21:12:38.407Z,100558.69
2023-05-05T21:15:08.364Z,100554.31
2023-05-05T21:17:37.664Z,100542.66
2023-05-05T21:20:08.700Z,100548.47
2023-05-05T21:22:36.972Z,100548.81
2023-05-05T21:25:15.672Z,100555.66
2023-05-05T21:27:43.845Z,100553.84
2023-05-05T21:30:13.133Z,100551.25
2023-05-05T21:32:42.156Z,100549.25
2023-05-05T21:35:11.743Z,100553.25
2023-05-05T21:37:40.149Z,100562.56
2023-05-05T21:40:13.550Z,100567.38
2023-05-05T21:42:42.457Z,100567.38
2023-05-05T21:45:12.027Z,100568.50
2023-05-05T21:47:40.124Z,100562.69
2023-05-05T21:50:09.844Z,100558.22
2023-05-05T21:52:39.641Z,100562.16
2023-05-05T21:55:08.359Z,100563.28
2023-05-05T21:57:36.424Z,100553.31
2023-05-05T22:00:05.716Z,100554.97
2023-05-05T22:02:40.507Z,100558.13
2023-05-05T22:05:09.298Z,100556.75
2023-05-05T22:07:37.534Z,100561.53
2023-05-05T22:10:08.216Z,100558.38
2023-05-05T22:12:36.601Z,100563.13
2023-05-05T22:15:05.086Z,100565.28
2023-05-05T22:17:33.212Z,100569.22
2023-05-05T22:20:01.246Z,100569.41
2023-05-05T22:22:29.294Z,100571.22
2023-05-05T22:24:57.314Z,100571.22
2023-05-05T22:27:26.904Z,100567.75
2023-05-05T22:29:54.971Z,100570.06
2023-05-05T22:32:23.024Z,100574.00
2023-05-05T22:34:51.115Z,100578.97
2023-05-05T22:37:19.191Z,100581.28
2023-05-05T22:39:47.247Z,100579.25
2023-05-05T22:42:15.400Z,100578.09
2023-05-05T22:44:44.897Z,100574.59
2023-05-05T22:47:13.316Z,100579.09
2023-05-05T22:49:41.490Z,100580.56
2023-05-05T22:52:09.683Z,100578.75
2023-05-05T22:54:37.676Z,100574.44
2023-05-05T22:57:05.742Z,100580.75
2023-05-05T22:59:33.769Z,100579.09
2023-05-05T23:02:03.174Z,100572.13
2023-05-05T23:04:31.293Z,100576.13
2023-05-05T23:06:59.391Z,100570.34
2023-05-05T23:09:27.440Z,100571.53
2023-05-05T23:11:55.525Z,100564.38
2023-05-05T23:14:23.543Z,100566.22
2023-05-05T23:16:51.672Z,100567.03
2023-05-05T23:19:21.256Z,100560.94
2023-05-05T23:21:53.642Z,100564.56
2023-05-05T23:24:22.749Z,100563.09
2023-05-05T23:26:52.020Z,100573.41
2023-05-05T23:29:20.078Z,100567.16
2023-05-05T23:31:48.524Z,100573.97
2023-05-05T23:34:16.707Z,100569.38
2023-05-05T23:36:46.202Z,100572.91
2023-05-05T23:39:14.271Z,100573.44
2023-05-05T23:41:42.406Z,100586.19
2023-05-05T23:44:10.463Z,100583.25
2023-05-05T23:46:38.529Z,100591.03
2023-05-05T23:49:06.629Z,100588.91
2023-05-05T23:51:34.714Z,100588.41
2023-05-05T23:54:04.100Z,100591.25
2023-05-05T23:56:32.257Z,100589.56
2023-05-05T23:59:00.235Z,100587.41
